createdAt,value
2023-02-22T00:00:48.077Z,5.77
2023-02-22T00:03:25.013Z,5.71
2023-02-22T00:06:18.597Z,5.75
2023-02-22T00:08:47.896Z,5.64
2023-02-22T00:11:14.956Z,5.63
2023-02-22T00:13:44.907Z,5.65
2023-02-22T00:16:20.940Z,5.51
2023-02-22T00:18:48.089Z,5.52
2023-02-22T00:21:16.699Z,5.34
2023-02-22T00:23:46.673Z,5.27
2023-02-22T00:26:18.129Z,5.36
2023-02-22T00:28:52.099Z,5.41
2023-02-22T00:31:19.609Z,5.35
2023-02-22T00:33:46.383Z,5.46
2023-02-22T00:36:14.033Z,5.44
2023-02-22T00:38:41.680Z,5.40
2023-02-22T00:41:09.155Z,4.95
2023-02-22T00:43:35.795Z,5.06
2023-02-22T00:46:02.546Z,5.25
2023-02-22T00:48:29.084Z,5.37
2023-02-22T00:50:55.510Z,5.23
2023-02-22T00:53:23.983Z,5.18
2023-02-22T00:55:51.005Z,5.27
2023-02-22T00:58:18.445Z,5.06
2023-02-22T01:00:45.506Z,4.99
2023-02-22T01:03:17.187Z,5.05
2023-02-22T01:05:44.317Z,5.07
2023-02-22T01:08:13.622Z,5.12
2023-02-22T01:10:40.394Z,4.82
2023-02-22T01:13:12.236Z,4.95
2023-02-22T01:15:41.290Z,4.89
2023-02-22T01:18:08.588Z,4.84
2023-02-22T01:20:35.776Z,4.70
2023-02-22T01:23:03.746Z,4.83
2023-02-22T01:25:31.542Z,4.86
2023-02-22T01:27:59.713Z,4.90
2023-02-22T01:30:30.053Z,4.84
2023-02-22T01:32:56.827Z,4.70
2023-02-22T01:35:30.652Z,4.78
2023-02-22T01:37:58.023Z,4.73
2023-02-22T01:40:34.325Z,4.69
2023-02-22T01:43:03.526Z,4.56
2023-02-22T01:45:29.893Z,4.66
2023-02-22T01:47:59.331Z,4.79
2023-02-22T01:50:26.612Z,4.58
2023-02-22T01:52:53.084Z,4.73
2023-02-22T01:55:19.671Z,4.66
2023-02-22T01:57:47.752Z,4.79
2023-02-22T02:00:19.565Z,4.55
2023-02-22T02:02:51.186Z,4.27
2023-02-22T02:05:24.088Z,4.25
2023-02-22T02:07:52.513Z,4.20
2023-02-22T02:10:21.378Z,4.30
2023-02-22T02:12:50.357Z,4.26
2023-02-22T02:15:23.888Z,4.15
2023-02-22T02:17:53.088Z,4.39
2023-02-22T02:20:27.915Z,4.26
2023-02-22T02:23:08.352Z,4.29
2023-02-22T02:25:43.420Z,4.52
2023-02-22T02:28:45.435Z,4.29
2023-02-22T02:31:20.800Z,4.52
2023-02-22T02:34:00.423Z,4.40
2023-02-22T02:36:36.982Z,4.13
2023-02-22T02:39:30.990Z,4.10
2023-02-22T02:42:02.210Z,3.99
2023-02-22T02:44:28.470Z,3.83
2023-02-22T02:47:07.870Z,3.76
2023-02-22T02:49:46.540Z,3.75
2023-02-22T02:52:15.969Z,3.62
2023-02-22T02:54:43.695Z,3.68
2023-02-22T02:57:10.145Z,3.67
2023-02-22T02:59:38.281Z,3.78
2023-02-22T03:02:38.162Z,3.83
2023-02-22T03:05:34.439Z,3.94
2023-02-22T03:08:17.095Z,3.81
2023-02-22T03:11:05.541Z,4.01
2023-02-22T03:13:58.432Z,3.73
2023-02-22T03:16:50.087Z,3.94
2023-02-22T03:19:25.656Z,3.96
2023-02-22T03:22:01.094Z,3.94
2023-02-22T03:24:37.120Z,3.81
2023-02-22T03:27:13.029Z,3.64
2023-02-22T03:29:45.581Z,3.71
2023-02-22T03:32:18.193Z,3.84
2023-02-22T03:34:56.630Z,3.67
2023-02-22T03:37:29.866Z,3.62
2023-02-22T03:39:59.231Z,3.52
2023-02-22T03:42:31.224Z,3.42
2023-02-22T03:45:01.114Z,3.41
2023-02-22T03:47:39.905Z,3.71
2023-02-22T03:50:18.177Z,3.69
2023-02-22T03:52:47.332Z,3.60
2023-02-22T03:55:20.757Z,3.47
2023-02-22T03:57:51.760Z,3.68
2023-02-22T04:00:22.958Z,3.77
2023-02-22T04:02:49.865Z,3.55
2023-02-22T04:05:19.743Z,3.48
2023-02-22T04:07:47.100Z,3.63
2023-02-22T04:10:15.889Z,3.68
2023-02-22T04:12:43.357Z,3.55
2023-02-22T04:15:13.691Z,3.72
2023-02-22T04:17:40.054Z,3.68
2023-02-22T04:20:09.107Z,3.83
2023-02-22T04:22:43.739Z,3.65
2023-02-22T04:25:10.332Z,3.63
2023-02-22T04:27:36.936Z,3.65
2023-02-22T04:30:04.036Z,3.64
2023-02-22T04:32:31.822Z,3.44
2023-02-22T04:34:58.815Z,3.50
2023-02-22T04:37:26.774Z,3.55
2023-02-22T04:39:53.895Z,3.44
2023-02-22T04:42:20.720Z,3.48
2023-02-22T04:44:47.225Z,3.45
2023-02-22T04:47:13.778Z,3.40
2023-02-22T04:49:40.062Z,3.51
2023-02-22T04:52:06.900Z,3.50
2023-02-22T04:54:36.158Z,3.56
2023-02-22T04:57:02.679Z,3.66
2023-02-22T04:59:29.146Z,3.61
2023-02-22T05:02:00.735Z,3.68
2023-02-22T05:04:27.199Z,3.74
2023-02-22T05:06:55.036Z,3.42
2023-02-22T05:09:21.600Z,3.65
2023-02-22T05:11:47.941Z,3.82
2023-02-22T05:14:14.285Z,3.85
2023-02-22T05:16:40.702Z,3.78
2023-02-22T05:19:07.045Z,3.79
2023-02-22T05:21:33.608Z,3.84
2023-02-22T05:23:59.977Z,3.68
2023-02-22T05:26:31.184Z,3.67
2023-02-22T05:28:58.693Z,3.80
2023-02-22T05:31:25.164Z,3.51
2023-02-22T05:33:51.495Z,3.72
2023-02-22T05:36:17.865Z,3.48
2023-02-22T05:38:44.693Z,3.65
2023-02-22T05:41:12.653Z,3.69
2023-02-22T05:43:40.285Z,3.86
2023-02-22T05:46:07.202Z,3.94
2023-02-22T05:48:34.015Z,3.91
2023-02-22T05:51:00.318Z,3.83
2023-02-22T05:53:27.613Z,3.75
2023-02-22T05:55:53.923Z,3.64
2023-02-22T05:58:20.237Z,3.44
2023-02-22T06:00:46.621Z,3.43
2023-02-22T06:03:13.628Z,3.42
2023-02-22T06:05:41.478Z,3.30
2023-02-22T06:08:08.542Z,3.18
2023-02-22T06:10:34.881Z,3.17
2023-02-22T06:13:01.782Z,3.41
2023-02-22T06:15:28.928Z,3.56
2023-02-22T06:17:56.775Z,3.67
2023-02-22T06:20:25.386Z,3.37
2023-02-22T06:22:53.630Z,3.35
2023-02-22T06:25:24.094Z,3.40
2023-02-22T06:27:50.571Z,3.33
2023-02-22T06:30:19.603Z,3.40
2023-02-22T06:32:45.969Z,3.52
2023-02-22T06:35:12.267Z,3.32
2023-02-22T06:37:40.138Z,3.51
2023-02-22T06:40:07.046Z,3.48
2023-02-22T06:42:33.452Z,3.56
2023-02-22T06:45:00.185Z,3.51
2023-02-22T06:47:26.621Z,3.25
2023-02-22T06:49:56.969Z,3.25
2023-02-22T06:52:23.686Z,3.37
2023-02-22T06:54:50.619Z,3.38
2023-02-22T06:57:17.955Z,3.25
2023-02-22T06:59:44.550Z,3.41
2023-02-22T07:02:13.789Z,3.68
2023-02-22T07:04:43.173Z,3.52
2023-02-22T07:07:09.828Z,3.62
2023-02-22T07:09:36.136Z,3.63
2023-02-22T07:12:02.418Z,3.78
2023-02-22T07:14:28.758Z,3.76
2023-02-22T07:16:55.078Z,3.75
2023-02-22T07:19:21.437Z,3.72
2023-02-22T07:21:47.986Z,3.78
2023-02-22T07:24:14.513Z,3.65
2023-02-22T07:26:42.109Z,3.76
2023-02-22T07:29:08.633Z,3.65
2023-02-22T07:31:36.561Z,3.77
2023-02-22T07:34:02.934Z,3.81
2023-02-22T07:36:29.215Z,3.67
2023-02-22T07:38:55.500Z,3.65
2023-02-22T07:41:22.749Z,3.70
2023-02-22T07:43:49.099Z,3.97
2023-02-22T07:46:15.396Z,4.04
2023-02-22T07:48:41.852Z,3.81
2023-02-22T07:51:09.731Z,3.78
2023-02-22T07:53:36.063Z,4.02
2023-02-22T07:56:05.130Z,3.96
2023-02-22T07:58:32.580Z,3.91
2023-02-22T08:01:01.889Z,3.76
2023-02-22T08:03:36.292Z,3.73
2023-02-22T08:06:02.999Z,3.84
2023-02-22T08:08:29.331Z,3.90
2023-02-22T08:10:56.327Z,4.05
2023-02-22T08:13:23.579Z,3.96
2023-02-22T08:15:53.066Z,4.01
2023-02-22T08:18:20.871Z,3.99
2023-02-22T08:20:49.361Z,3.97
2023-02-22T08:23:17.168Z,3.93
2023-02-22T08:25:44.395Z,4.06
2023-02-22T08:28:13.662Z,4.16
2023-02-22T08:30:42.787Z,4.09
2023-02-22T08:33:13.449Z,4.10
2023-02-22T08:35:40.902Z,4.01
2023-02-22T08:38:08.476Z,3.88
2023-02-22T08:40:36.965Z,3.97
2023-02-22T08:43:04.362Z,3.81
2023-02-22T08:45:30.860Z,3.92
2023-02-22T08:47:58.211Z,4.02
2023-02-22T08:50:27.540Z,4.03
2023-02-22T08:52:56.655Z,3.96
2023-02-22T08:55:24.964Z,3.89
2023-02-22T08:57:51.544Z,3.80
2023-02-22T09:00:19.674Z,4.12
2023-02-22T09:02:46.112Z,4.05
2023-02-22T09:05:12.505Z,4.19
2023-02-22T09:07:42.357Z,4.18
2023-02-22T09:10:15.380Z,4.16
2023-02-22T09:12:42.457Z,4.28
2023-02-22T09:15:09.640Z,4.34
2023-02-22T09:17:37.314Z,4.42
2023-02-22T09:20:06.111Z,4.51
2023-02-22T09:22:32.469Z,4.40
2023-02-22T09:25:02.594Z,4.42
2023-02-22T09:27:34.320Z,4.55
2023-02-22T09:30:00.839Z,4.61
2023-02-22T09:32:28.427Z,4.69
2023-02-22T09:34:55.590Z,4.66
2023-02-22T09:37:22.677Z,4.82
2023-02-22T09:39:49.245Z,4.73
2023-02-22T09:42:25.772Z,4.70
2023-02-22T09:45:03.620Z,4.84
2023-02-22T09:47:40.490Z,4.85
2023-02-22T09:50:18.853Z,4.86
2023-02-22T09:53:04.812Z,4.97
2023-02-22T09:55:50.400Z,4.98
2023-02-22T09:58:28.472Z,5.05
2023-02-22T10:01:00.797Z,4.84
2023-02-22T10:03:36.704Z,4.98
2023-02-22T10:06:15.508Z,4.97
2023-02-22T10:08:44.663Z,5.08
2023-02-22T10:11:37.840Z,4.98
2023-02-22T10:14:33.239Z,4.99
2023-02-22T10:17:35.847Z,5.09
2023-02-22T10:20:48.446Z,5.00
2023-02-22T10:23:24.061Z,5.06
2023-02-22T10:26:06.100Z,5.07
2023-02-22T10:28:39.439Z,5.09
2023-02-22T10:31:08.900Z,5.22
2023-02-22T10:33:48.703Z,5.19
2023-02-22T10:36:19.978Z,5.29
2023-02-22T10:39:02.097Z,5.47
2023-02-22T10:41:31.633Z,5.50
2023-02-22T10:43:58.412Z,5.51
2023-02-22T10:46:28.259Z,5.56
2023-02-22T10:49:00.204Z,5.68
2023-02-22T10:51:26.621Z,5.54
2023-02-22T10:54:21.045Z,5.53
2023-02-22T10:56:49.914Z,5.40
2023-02-22T10:59:41.891Z,5.58
2023-02-22T11:02:19.362Z,5.68
2023-02-22T11:04:54.949Z,5.69
2023-02-22T11:07:35.891Z,5.76
2023-02-22T11:10:09.237Z,5.87
2023-02-22T11:12:39.325Z,5.89
2023-02-22T11:15:18.348Z,6.00
2023-02-22T11:17:47.873Z,6.08
2023-02-22T11:20:27.951Z,6.24
2023-02-22T11:23:01.021Z,6.17
2023-02-22T11:25:34.904Z,6.22
2023-02-22T11:28:10.061Z,6.14
2023-02-22T11:30:38.165Z,6.22
2023-02-22T11:33:16.843Z,6.42
2023-02-22T11:36:10.127Z,6.44
2023-02-22T11:38:39.002Z,6.54
2023-02-22T11:41:05.372Z,6.62
2023-02-22T11:43:31.978Z,6.66
2023-02-22T11:46:27.341Z,6.91
2023-02-22T11:49:05.894Z,6.81
2023-02-22T11:52:07.335Z,6.90
2023-02-22T11:54:47.411Z,6.89
2023-02-22T11:57:24.059Z,6.98
2023-02-22T12:00:15.912Z,7.08
2023-02-22T12:03:00.917Z,7.27
2023-02-22T12:05:42.566Z,7.25
2023-02-22T12:08:27.122Z,7.25
2023-02-22T12:11:12.755Z,7.17
2023-02-22T12:14:10.452Z,7.35
2023-02-22T12:17:07.559Z,7.31
2023-02-22T12:19:39.252Z,7.25
2023-02-22T12:22:12.931Z,7.17
2023-02-22T12:25:10.299Z,7.07
2023-02-22T12:27:43.376Z,7.18
2023-02-22T12:30:28.687Z,7.19
2023-02-22T12:33:03.139Z,7.22
2023-02-22T12:35:37.350Z,7.23
2023-02-22T12:38:15.705Z,7.21
2023-02-22T12:41:08.706Z,7.20
2023-02-22T12:43:41.810Z,7.23
2023-02-22T12:46:19.094Z,7.21
2023-02-22T12:48:54.546Z,7.28
2023-02-22T12:51:36.845Z,7.25
2023-02-22T12:54:05.959Z,7.26
2023-02-22T12:56:42.803Z,7.24
2023-02-22T12:59:19.118Z,7.29
2023-02-22T13:01:52.107Z,7.39
2023-02-22T13:04:21.340Z,7.48
2023-02-22T13:07:05.218Z,7.71
2023-02-22T13:09:50.301Z,7.98
2023-02-22T13:12:32.542Z,8.47
2023-02-22T13:15:11.079Z,8.62
2023-02-22T13:18:21.200Z,8.68
2023-02-22T13:20:54.000Z,8.41
2023-02-22T13:23:35.902Z,8.56
2023-02-22T13:26:28.493Z,8.67
2023-02-22T13:29:05.499Z,8.69
2023-02-22T13:31:53.298Z,8.66
2023-02-22T13:34:30.076Z,8.63
2023-02-22T13:37:30.768Z,8.56
2023-02-22T13:40:16.693Z,8.58
2023-02-22T13:42:59.619Z,8.68
2023-02-22T13:46:12.459Z,8.77
2023-02-22T13:48:52.709Z,8.80
2023-02-22T13:51:58.852Z,8.86
2023-02-22T13:54:51.253Z,8.87
2023-02-22T13:57:40.014Z,8.89
2023-02-22T14:00:15.511Z,8.96
2023-02-22T14:03:03.263Z,8.96
2023-02-22T14:05:42.362Z,8.95
2023-02-22T14:08:28.839Z,8.98
2023-02-22T14:10:56.682Z,9.03
2023-02-22T14:13:26.525Z,9.00
2023-02-22T14:15:59.744Z,9.08
2023-02-22T14:18:42.886Z,9.10
2023-02-22T14:21:11.454Z,9.14
2023-02-22T14:23:54.864Z,9.13
2023-02-22T14:26:27.019Z,9.14
2023-02-22T14:29:07.416Z,9.15
2023-02-22T14:31:51.762Z,9.19
2023-02-22T14:34:21.351Z,9.18
2023-02-22T14:36:58.492Z,9.19
2023-02-22T14:39:34.352Z,9.17
2023-02-22T14:42:18.034Z,9.18
2023-02-22T14:45:16.962Z,9.18
2023-02-22T14:48:00.925Z,9.18
2023-02-22T14:50:41.502Z,9.20
2023-02-22T14:53:23.491Z,9.16
2023-02-22T14:55:56.509Z,9.17
2023-02-22T14:58:46.408Z,9.09
2023-02-22T15:01:33.939Z,9.08
2023-02-22T15:04:30.826Z,9.22
2023-02-22T15:06:59.745Z,9.19
2023-02-22T15:09:30.670Z,9.24
2023-02-22T15:12:05.196Z,9.30
2023-02-22T15:14:44.467Z,9.26
2023-02-22T15:17:19.436Z,9.30
2023-02-22T15:19:48.582Z,9.32
2023-02-22T15:22:20.606Z,9.32
2023-02-22T15:24:58.673Z,9.29
2023-02-22T15:27:26.091Z,9.26
2023-02-22T15:29:59.857Z,9.29
2023-02-22T15:32:30.988Z,9.30
2023-02-22T15:35:16.457Z,9.24
2023-02-22T15:37:44.638Z,9.24
2023-02-22T15:40:21.713Z,9.26
2023-02-22T15:42:53.022Z,9.25
2023-02-22T15:45:25.047Z,9.26
2023-02-22T15:47:55.834Z,9.25
2023-02-22T15:50:34.040Z,9.23
2023-02-22T15:53:02.673Z,9.20
2023-02-22T15:55:33.196Z,9.22
2023-02-22T15:58:07.258Z,9.22
2023-02-22T16:00:39.987Z,9.23
2023-02-22T16:03:12.395Z,9.21
2023-02-22T16:05:51.327Z,9.21
2023-02-22T16:08:23.019Z,9.15
2023-02-22T16:10:57.780Z,9.21
2023-02-22T16:13:32.118Z,9.15
2023-02-22T16:16:03.291Z,9.18
2023-02-22T16:18:35.991Z,9.18
2023-02-22T16:21:07.313Z,9.16
2023-02-22T16:23:47.691Z,9.11
2023-02-22T16:26:32.589Z,9.11
2023-02-22T16:29:08.428Z,9.09
2023-02-22T16:31:37.625Z,9.05
2023-02-22T16:34:06.391Z,9.07
2023-02-22T16:36:38.956Z,9.04
2023-02-22T16:39:07.574Z,9.00
2023-02-22T16:41:34.319Z,8.97
2023-02-22T16:44:00.688Z,8.90
2023-02-22T16:46:27.041Z,8.91
2023-02-22T16:48:53.499Z,8.82
2023-02-22T16:51:26.450Z,8.82
2023-02-22T16:53:55.148Z,8.79
2023-02-22T16:56:30.908Z,8.76
2023-02-22T16:59:00.927Z,8.69
2023-02-22T17:01:27.243Z,8.61
2023-02-22T17:03:54.070Z,8.58
2023-02-22T17:06:21.190Z,8.61
2023-02-22T17:08:48.632Z,8.61
2023-02-22T17:11:14.930Z,8.55
2023-02-22T17:13:41.294Z,8.55
2023-02-22T17:16:14.040Z,8.53
2023-02-22T17:18:40.571Z,8.51
2023-02-22T17:21:07.092Z,8.44
2023-02-22T17:23:34.699Z,8.39
2023-02-22T17:26:02.204Z,8.34
2023-02-22T17:28:29.112Z,8.36
2023-02-22T17:31:01.051Z,8.39
2023-02-22T17:33:30.596Z,8.26
2023-02-22T17:35:58.328Z,8.20
2023-02-22T17:38:28.653Z,8.15
2023-02-22T17:40:55.886Z,8.25
2023-02-22T17:43:22.846Z,8.20
2023-02-22T17:45:49.787Z,8.27
2023-02-22T17:48:17.511Z,8.23
2023-02-22T17:50:46.343Z,8.13
2023-02-22T17:53:13.217Z,8.21
2023-02-22T17:55:42.044Z,8.19
2023-02-22T17:58:14.426Z,8.11
2023-02-22T18:00:44.216Z,8.16
2023-02-22T18:03:14.094Z,8.09
2023-02-22T18:05:46.914Z,8.06
2023-02-22T18:08:14.463Z,7.93
2023-02-22T18:10:44.774Z,8.07
2023-02-22T18:13:18.524Z,8.08
2023-02-22T18:15:46.782Z,8.05
2023-02-22T18:18:13.496Z,8.16
2023-02-22T18:20:44.501Z,7.97
2023-02-22T18:23:13.598Z,7.95
2023-02-22T18:25:40.280Z,8.11
2023-02-22T18:28:08.186Z,8.09
2023-02-22T18:30:36.667Z,8.25
2023-02-22T18:33:06.845Z,8.23
2023-02-22T18:35:33.240Z,8.06
2023-02-22T18:38:00.705Z,8.07
2023-02-22T18:40:27.167Z,7.93
2023-02-22T18:42:53.441Z,7.92
2023-02-22T18:45:20.951Z,7.96
2023-02-22T18:47:47.353Z,8.01
2023-02-22T18:50:15.645Z,8.05
2023-02-22T18:52:45.614Z,8.07
2023-02-22T18:55:13.053Z,7.93
2023-02-22T18:57:39.540Z,8.03
2023-02-22T19:00:07.686Z,8.05
2023-02-22T19:02:34.066Z,7.91
2023-02-22T19:05:00.377Z,7.94
2023-02-22T19:07:27.038Z,7.93
2023-02-22T19:09:53.386Z,7.90
2023-02-22T19:12:19.806Z,8.01
2023-02-22T19:14:46.127Z,7.81
2023-02-22T19:17:16.044Z,7.95
2023-02-22T19:19:43.791Z,7.94
2023-02-22T19:22:14.908Z,7.98
2023-02-22T19:24:42.457Z,7.82
2023-02-22T19:27:09.557Z,7.77
2023-02-22T19:29:38.554Z,7.84
2023-02-22T19:32:06.402Z,7.81
2023-02-22T19:34:33.114Z,7.62
2023-02-22T19:37:04.910Z,7.64
2023-02-22T19:39:33.492Z,7.63
2023-02-22T19:42:00.500Z,7.61
2023-02-22T19:44:27.982Z,7.67
2023-02-22T19:46:55.292Z,7.61
2023-02-22T19:49:22.677Z,7.59
2023-02-22T19:51:49.543Z,7.56
2023-02-22T19:54:19.334Z,7.44
2023-02-22T19:56:50.606Z,7.35
2023-02-22T19:59:21.150Z,7.32
2023-02-22T20:01:47.583Z,7.46
2023-02-22T20:04:21.245Z,7.40
2023-02-22T20:06:50.467Z,7.41
2023-02-22T20:09:20.059Z,7.52
2023-02-22T20:11:47.590Z,7.50
2023-02-22T20:14:23.286Z,7.45
2023-02-22T20:16:54.836Z,7.53
2023-02-22T20:19:24.429Z,7.50
2023-02-22T20:21:52.164Z,7.24
2023-02-22T20:24:18.959Z,7.32
2023-02-22T20:26:46.683Z,7.40
2023-02-22T20:29:13.963Z,7.37
2023-02-22T20:31:42.036Z,7.33
2023-02-22T20:34:09.750Z,7.32
2023-02-22T20:36:38.916Z,7.38
2023-02-22T20:39:13.155Z,7.40
2023-02-22T20:41:42.476Z,7.46
2023-02-22T20:44:11.912Z,7.44
2023-02-22T20:46:38.324Z,7.27
2023-02-22T20:49:11.008Z,7.34
2023-02-22T20:51:41.879Z,7.20
2023-02-22T20:54:11.917Z,7.25
2023-02-22T20:56:41.714Z,7.40
2023-02-22T20:59:11.718Z,7.39
2023-02-22T21:01:38.107Z,7.42
2023-02-22T21:04:06.428Z,7.54
2023-02-22T21:06:35.487Z,7.45
2023-02-22T21:09:06.384Z,7.39
2023-02-22T21:11:33.628Z,7.37
2023-02-22T21:14:00.892Z,7.42
2023-02-22T21:16:34.411Z,7.48
2023-02-22T21:19:04.684Z,7.32
2023-02-22T21:21:31.770Z,7.20
2023-02-22T21:24:02.385Z,7.31
2023-02-22T21:26:31.376Z,7.38
2023-02-22T21:29:00.494Z,7.47
2023-02-22T21:31:28.437Z,7.48
2023-02-22T21:33:56.933Z,7.49
2023-02-22T21:36:25.104Z,7.56
2023-02-22T21:38:57.756Z,7.54
2023-02-22T21:41:30.118Z,7.58
2023-02-22T21:43:58.636Z,7.70
2023-02-22T21:46:27.741Z,7.69
2023-02-22T21:48:54.184Z,7.49
2023-02-22T21:51:31.981Z,7.72
2023-02-22T21:54:03.634Z,7.61
2023-02-22T21:56:32.280Z,7.63
2023-02-22T21:59:02.822Z,7.55
2023-02-22T22:01:33.291Z,7.51
2023-02-22T22:04:01.681Z,7.55
2023-02-22T22:06:30.299Z,7.57
2023-02-22T22:08:57.806Z,7.43
2023-02-22T22:11:25.082Z,7.53
2023-02-22T22:13:53.398Z,7.44
2023-02-22T22:16:20.433Z,7.39
2023-02-22T22:18:46.894Z,7.55
2023-02-22T22:21:19.615Z,7.56
2023-02-22T22:23:47.231Z,7.46
2023-02-22T22:26:16.279Z,7.42
2023-02-22T22:28:44.956Z,7.44
2023-02-22T22:31:12.151Z,7.50
2023-02-22T22:33:41.279Z,7.62
2023-02-22T22:36:09.235Z,7.59
2023-02-22T22:38:39.598Z,7.57
2023-02-22T22:41:08.033Z,7.58
2023-02-22T22:43:36.914Z,7.61
2023-02-22T22:46:05.496Z,7.63
2023-02-22T22:48:35.991Z,7.66
2023-02-22T22:51:06.569Z,7.58
2023-02-22T22:53:34.148Z,7.54
2023-02-22T22:56:14.119Z,7.59
2023-02-22T22:58:48.269Z,7.61
2023-02-22T23:01:27.347Z,7.67
2023-02-22T23:04:01.674Z,7.64
2023-02-22T23:06:33.861Z,7.65
2023-02-22T23:09:13.126Z,7.64
2023-02-22T23:11:45.108Z,7.65
2023-02-22T23:14:20.716Z,7.70
2023-02-22T23:16:52.958Z,7.73
2023-02-22T23:19:19.706Z,7.78
2023-02-22T23:21:47.812Z,7.82
2023-02-22T23:24:15.667Z,7.88
2023-02-22T23:26:42.671Z,7.90
2023-02-22T23:29:09.653Z,7.90
2023-02-22T23:31:39.415Z,7.95
2023-02-22T23:34:10.961Z,7.95
2023-02-22T23:36:38.993Z,7.97
2023-02-22T23:39:09.213Z,7.95
2023-02-22T23:41:36.351Z,7.91
2023-02-22T23:44:08.077Z,8.02
2023-02-22T23:46:36.348Z,8.00
2023-02-22T23:49:05.198Z,7.98
2023-02-22T23:51:49.833Z,8.02
2023-02-22T23:54:21.577Z,8.05
2023-02-22T23:56:56.858Z,8.10
2023-02-22T23:59:27.225Z,8.05
